createdAt,value
2016-12-25T00:01:17.857Z,1016.13
2016-12-25T00:11:21.124Z,1016.19
2016-12-25T00:16:17.471Z,1016.23
2016-12-25T00:21:14.795Z,1016.26
2016-12-25T00:26:11.073Z,1016.25
2016-12-25T00:31:07.497Z,1016.15
2016-12-25T00:36:04.071Z,1016.28
2016-12-25T00:41:00.701Z,1016.25
2016-12-25T00:45:56.973Z,1016.31
2016-12-25T00:50:53.372Z,1016.24
2016-12-25T00:55:49.574Z,1016.23
2016-12-25T01:00:48.264Z,1016.22
2016-12-25T01:05:44.268Z,1016.18
2016-12-25T01:10:40.865Z,1016.34
2016-12-25T01:15:37.340Z,1016.28
2016-12-25T01:20:33.934Z,1016.34
2016-12-25T01:25:30.774Z,1016.12
2016-12-25T01:30:27.712Z,1016.24
2016-12-25T01:35:24.619Z,1016.23
2016-12-25T01:40:21.153Z,1016.11
2016-12-25T01:45:17.529Z,1016.00
2016-12-25T01:50:13.827Z,1016.10
2016-12-25T01:55:10.313Z,1016.11
2016-12-25T02:00:07.112Z,1016.17
2016-12-25T02:05:03.829Z,1016.15
2016-12-25T02:10:00.232Z,1016.06
2016-12-25T02:14:56.716Z,1016.05
2016-12-25T02:19:53.175Z,1015.99
2016-12-25T02:24:49.381Z,1015.80
2016-12-25T02:29:45.835Z,1015.78
2016-12-25T02:34:42.675Z,1015.53
2016-12-25T02:39:39.273Z,1015.51
2016-12-25T02:44:36.031Z,1015.60
2016-12-25T02:49:32.712Z,1015.59
2016-12-25T02:54:29.021Z,1015.66
2016-12-25T02:59:25.566Z,1015.65
2016-12-25T03:04:23.892Z,1015.52
2016-12-25T03:09:20.133Z,1015.55
2016-12-25T03:14:16.664Z,1015.37
2016-12-25T03:19:14.226Z,1015.39
2016-12-25T03:24:11.311Z,1015.34
2016-12-25T03:29:08.047Z,1015.38
2016-12-25T03:34:04.673Z,1015.28
2016-12-25T03:39:02.134Z,1015.15
2016-12-25T03:43:58.474Z,1015.10
2016-12-25T03:48:54.813Z,1015.16
2016-12-25T03:53:51.715Z,1015.07
2016-12-25T03:58:48.280Z,1014.92
2016-12-25T04:03:46.214Z,1014.74
2016-12-25T04:08:42.679Z,1014.96
2016-12-25T04:13:39.676Z,1015.00
2016-12-25T04:18:37.129Z,1015.05
2016-12-25T04:23:33.593Z,1015.02
2016-12-25T04:28:31.629Z,1014.89
2016-12-25T04:33:27.820Z,1014.94
2016-12-25T04:38:24.505Z,1015.04
2016-12-25T04:43:22.732Z,1015.01
2016-12-25T04:48:20.281Z,1014.93
2016-12-25T04:53:16.902Z,1014.98
2016-12-25T04:58:13.393Z,1014.90
2016-12-25T05:08:10.071Z,1014.94
2016-12-25T05:13:06.897Z,1014.82
2016-12-25T05:18:03.711Z,1014.76
2016-12-25T05:23:00.394Z,1014.62
2016-12-25T05:27:57.341Z,1014.62
2016-12-25T05:32:53.883Z,1014.52
2016-12-25T05:37:50.865Z,1014.50
2016-12-25T05:42:47.333Z,1014.73
2016-12-25T05:47:44.477Z,1014.51
2016-12-25T05:52:42.170Z,1014.47
2016-12-25T05:57:38.522Z,1014.47
2016-12-25T06:02:36.146Z,1014.62
2016-12-25T06:07:32.381Z,1014.52
2016-12-25T06:12:29.508Z,1014.43
2016-12-25T06:17:27.035Z,1014.32
2016-12-25T06:22:23.458Z,1014.25
2016-12-25T06:27:20.041Z,1014.15
2016-12-25T06:32:18.290Z,1013.75
2016-12-25T06:37:14.402Z,1013.74
2016-12-25T06:42:10.828Z,1013.53
2016-12-25T06:47:07.154Z,1013.73
2016-12-25T06:52:04.223Z,1013.74
2016-12-25T06:57:01.394Z,1013.81
2016-12-25T07:01:57.926Z,1013.82
2016-12-25T07:06:54.341Z,1014.02
2016-12-25T07:11:50.695Z,1014.04
2016-12-25T07:16:47.197Z,1014.40
2016-12-25T07:21:44.546Z,1014.55
2016-12-25T07:26:40.795Z,1014.57
2016-12-25T07:31:37.406Z,1014.65
2016-12-25T07:36:33.959Z,1014.70
2016-12-25T07:41:30.287Z,1014.74
2016-12-25T07:46:26.720Z,1014.70
2016-12-25T07:51:23.144Z,1014.64
2016-12-25T07:56:19.569Z,1014.61
2016-12-25T08:01:16.019Z,1014.66
2016-12-25T08:06:12.651Z,1014.77
2016-12-25T08:11:09.381Z,1014.70
2016-12-25T08:16:06.494Z,1014.73
2016-12-25T08:21:03.190Z,1014.75
2016-12-25T08:25:59.571Z,1014.72
2016-12-25T08:30:55.972Z,1014.80
2016-12-25T08:35:52.531Z,1014.79
2016-12-25T08:40:49.070Z,1014.71
2016-12-25T08:45:45.201Z,1014.84
2016-12-25T08:50:41.761Z,1014.82
2016-12-25T08:55:41.199Z,1014.80
2016-12-25T09:00:37.585Z,1014.87
2016-12-25T09:05:34.070Z,1014.96
2016-12-25T09:10:30.967Z,1015.04
2016-12-25T09:15:27.496Z,1015.05
2016-12-25T09:20:24.061Z,1015.06
2016-12-25T09:25:20.367Z,1015.10
2016-12-25T09:30:16.946Z,1015.04
2016-12-25T09:35:13.367Z,1015.15
2016-12-25T09:40:09.748Z,1015.30
2016-12-25T09:45:06.406Z,1015.34
2016-12-25T09:50:02.764Z,1015.27
2016-12-25T09:54:59.266Z,1015.31
2016-12-25T09:59:55.922Z,1015.41
2016-12-25T10:04:52.390Z,1015.31
2016-12-25T10:09:48.841Z,1015.33
2016-12-25T10:14:45.634Z,1015.31
2016-12-25T10:19:42.714Z,1015.26
2016-12-25T10:24:38.936Z,1015.26
2016-12-25T10:29:35.244Z,1015.30
2016-12-25T10:34:31.992Z,1015.18
2016-12-25T10:39:28.502Z,1015.15
2016-12-25T10:44:24.914Z,1015.21
2016-12-25T10:49:21.065Z,1015.12
2016-12-25T10:54:17.574Z,1015.14
2016-12-25T10:59:13.971Z,1015.14
2016-12-25T11:04:10.416Z,1014.99
2016-12-25T11:09:07.028Z,1015.13
2016-12-25T11:14:03.550Z,1015.14
2016-12-25T11:19:00.050Z,1015.15
2016-12-25T11:23:56.388Z,1015.06
2016-12-25T11:28:53.381Z,1014.97
2016-12-25T11:33:49.852Z,1015.00
2016-12-25T11:38:46.351Z,1014.94
2016-12-25T11:43:42.687Z,1014.87
2016-12-25T11:48:39.630Z,1014.99
2016-12-25T11:53:36.179Z,1014.95
2016-12-25T11:58:32.558Z,1015.04
2016-12-25T12:03:29.657Z,1014.98
2016-12-25T12:08:26.255Z,1014.91
2016-12-25T12:13:23.069Z,1014.86
2016-12-25T12:18:21.985Z,1014.95
2016-12-25T12:23:17.727Z,1014.93
2016-12-25T12:28:14.093Z,1014.89
2016-12-25T12:33:10.660Z,1014.81
2016-12-25T12:38:07.233Z,1014.73
2016-12-25T12:43:03.715Z,1014.76
2016-12-25T12:48:00.159Z,1014.71
2016-12-25T12:52:57.034Z,1014.77
2016-12-25T12:57:53.939Z,1014.64
2016-12-25T13:02:50.358Z,1014.61
2016-12-25T13:07:47.016Z,1014.66
2016-12-25T13:12:44.088Z,1014.72
2016-12-25T13:17:41.196Z,1014.69
2016-12-25T13:22:37.828Z,1014.67
2016-12-25T13:27:34.651Z,1014.78
2016-12-25T13:32:31.083Z,1014.76
2016-12-25T13:37:27.518Z,1014.81
2016-12-25T13:42:24.082Z,1014.75
2016-12-25T13:47:23.151Z,1014.79
2016-12-25T13:52:18.841Z,1014.76
2016-12-25T13:57:15.134Z,1014.81
2016-12-25T14:02:11.927Z,1014.81
2016-12-25T14:07:08.980Z,1014.85
2016-12-25T14:12:05.519Z,1014.95
2016-12-25T14:17:02.884Z,1014.94
2016-12-25T14:21:59.199Z,1015.08
2016-12-25T14:26:55.591Z,1015.07
2016-12-25T14:31:52.249Z,1015.23
2016-12-25T14:36:49.759Z,1015.28
2016-12-25T14:41:45.867Z,1015.31
2016-12-25T14:46:42.294Z,1015.31
2016-12-25T14:51:39.093Z,1015.23
2016-12-25T14:56:35.567Z,1015.25
2016-12-25T15:01:32.888Z,1015.25
2016-12-25T15:06:29.410Z,1015.35
2016-12-25T15:11:26.553Z,1015.28
2016-12-25T15:16:23.017Z,1015.24
2016-12-25T15:21:19.462Z,1015.33
2016-12-25T15:26:16.860Z,1015.46
2016-12-25T15:31:13.833Z,1015.48
2016-12-25T15:36:12.418Z,1015.41
2016-12-25T15:41:08.927Z,1015.51
2016-12-25T15:46:05.409Z,1015.50
2016-12-25T15:51:01.845Z,1015.41
2016-12-25T15:55:58.669Z,1015.42
2016-12-25T16:00:55.161Z,1015.33
2016-12-25T16:05:51.718Z,1015.29
2016-12-25T16:10:48.147Z,1015.31
2016-12-25T16:15:44.843Z,1015.40
2016-12-25T16:20:42.039Z,1015.36
2016-12-25T16:25:38.247Z,1015.48
2016-12-25T16:30:35.175Z,1015.35
2016-12-25T16:35:31.601Z,1015.39
2016-12-25T16:40:27.957Z,1015.29
2016-12-25T16:45:24.439Z,1015.23
2016-12-25T16:50:20.868Z,1015.16
2016-12-25T16:55:17.240Z,1015.16
2016-12-25T17:00:13.803Z,1015.30
2016-12-25T17:05:10.738Z,1015.42
2016-12-25T17:10:07.884Z,1015.33
2016-12-25T17:15:04.395Z,1015.30
2016-12-25T17:20:00.786Z,1015.35
2016-12-25T17:24:57.173Z,1015.33
2016-12-25T17:29:53.686Z,1015.42
2016-12-25T17:34:50.865Z,1015.41
2016-12-25T17:39:47.067Z,1015.38
2016-12-25T17:44:43.941Z,1015.47
2016-12-25T17:49:40.323Z,1015.44
2016-12-25T17:54:36.751Z,1015.79
2016-12-25T17:59:33.639Z,1015.62
2016-12-25T18:04:31.005Z,1015.75
2016-12-25T18:09:27.554Z,1015.42
2016-12-25T18:14:23.808Z,1015.52
2016-12-25T18:19:20.697Z,1015.39
2016-12-25T18:24:17.100Z,1015.34
2016-12-25T18:29:13.707Z,1015.30
2016-12-25T18:34:10.582Z,1015.34
2016-12-25T18:39:07.087Z,1015.22
2016-12-25T18:44:03.551Z,1015.25
2016-12-25T18:48:59.694Z,1015.22
2016-12-25T18:53:56.361Z,1015.25
2016-12-25T18:58:52.777Z,1015.13
2016-12-25T19:03:49.294Z,1015.19
2016-12-25T19:08:45.733Z,1015.33
2016-12-25T19:13:42.271Z,1015.27
2016-12-25T19:18:38.740Z,1015.31
2016-12-25T19:23:35.181Z,1015.40
2016-12-25T19:28:31.654Z,1015.57
2016-12-25T19:33:28.965Z,1015.53
2016-12-25T19:38:25.509Z,1015.66
2016-12-25T19:43:22.660Z,1015.60
2016-12-25T19:48:19.605Z,1015.60
2016-12-25T19:53:16.618Z,1015.63
2016-12-25T19:58:13.044Z,1015.74
2016-12-25T20:03:09.374Z,1015.75
2016-12-25T20:08:06.100Z,1015.75
2016-12-25T20:13:02.248Z,1015.58
2016-12-25T20:17:59.260Z,1015.56
2016-12-25T20:22:55.853Z,1015.69
2016-12-25T20:27:52.307Z,1015.74
2016-12-25T20:32:49.853Z,1015.75
2016-12-25T20:37:46.175Z,1015.68
2016-12-25T20:42:42.923Z,1015.64
2016-12-25T20:47:39.395Z,1015.56
2016-12-25T20:52:35.985Z,1015.56
2016-12-25T21:02:34.717Z,1015.64
2016-12-25T21:07:31.253Z,1015.65
2016-12-25T21:12:27.661Z,1015.68
2016-12-25T21:17:24.074Z,1015.73
2016-12-25T21:22:20.514Z,1015.68
2016-12-25T21:27:16.947Z,1015.74
2016-12-25T21:32:13.159Z,1015.78
2016-12-25T21:37:09.931Z,1015.75
2016-12-25T21:42:06.704Z,1015.84
2016-12-25T21:47:03.752Z,1015.91
2016-12-25T21:52:00.279Z,1015.77
2016-12-25T21:56:56.815Z,1015.71
2016-12-25T22:01:53.336Z,1015.70
2016-12-25T22:06:49.852Z,1015.73
2016-12-25T22:11:46.437Z,1015.64
2016-12-25T22:16:42.936Z,1015.71
2016-12-25T22:21:40.527Z,1015.66
2016-12-25T22:26:36.620Z,1015.69
2016-12-25T22:31:33.020Z,1015.64
2016-12-25T22:36:29.046Z,1015.64
2016-12-25T22:41:25.666Z,1015.66
2016-12-25T22:46:22.043Z,1015.65
2016-12-25T22:51:18.595Z,1015.80
2016-12-25T22:56:14.957Z,1015.82
2016-12-25T23:01:11.414Z,1015.87
2016-12-25T23:06:07.896Z,1015.91
2016-12-25T23:11:04.526Z,1015.90
2016-12-25T23:16:01.089Z,1015.87
2016-12-25T23:20:57.763Z,1015.93
2016-12-25T23:25:54.304Z,1015.73
2016-12-25T23:30:51.041Z,1015.89
2016-12-25T23:35:48.319Z,1016.01
2016-12-25T23:40:45.682Z,1015.86
2016-12-25T23:45:42.322Z,1015.90
2016-12-25T23:50:38.843Z,1015.82
2016-12-25T23:55:35.247Z,1015.71
